createdAt,value
2023-04-04T00:00:39.994Z,99893.50
2023-04-04T00:03:08.432Z,99889.94
2023-04-04T00:05:36.623Z,99902.59
2023-04-04T00:08:04.808Z,99882.97
2023-04-04T00:10:34.597Z,99882.53
2023-04-04T00:13:03.258Z,99878.63
2023-04-04T00:15:31.611Z,99869.97
2023-04-04T00:17:59.612Z,99872.47
2023-04-04T00:20:27.763Z,99881.78
2023-04-04T00:22:55.838Z,99852.81
2023-04-04T00:25:23.939Z,99892.41
2023-04-04T00:27:53.372Z,99853.00
2023-04-04T00:30:21.445Z,99799.44
2023-04-04T00:32:49.509Z,99827.78
2023-04-04T00:35:17.643Z,99844.34
2023-04-04T00:37:45.657Z,99827.72
2023-04-04T00:40:14.105Z,99820.19
2023-04-04T00:42:42.206Z,99831.91
2023-04-04T00:45:12.679Z,99772.56
2023-04-04T00:47:44.383Z,99841.78
2023-04-04T00:50:12.760Z,99833.78
2023-04-04T00:52:41.135Z,99850.00
2023-04-04T00:55:10.328Z,99832.13
2023-04-04T00:57:38.435Z,99848.97
2023-04-04T01:00:07.890Z,99837.56
2023-04-04T01:02:37.874Z,99851.00
2023-04-04T01:05:06.447Z,99862.28
2023-04-04T01:07:37.110Z,99831.91
2023-04-04T01:10:05.901Z,99853.88
2023-04-04T01:12:34.020Z,99847.03
2023-04-04T01:15:02.209Z,99841.16
2023-04-04T01:17:31.233Z,99840.66
2023-04-04T01:20:07.332Z,99841.09
2023-04-04T01:22:37.498Z,99826.03
2023-04-04T01:25:08.344Z,99827.72
2023-04-04T01:27:38.410Z,99817.88
2023-04-04T01:30:08.733Z,99811.59
2023-04-04T01:32:43.898Z,99834.00
2023-04-04T01:35:23.524Z,99815.84
2023-04-04T01:37:59.742Z,99803.78
2023-04-04T01:40:35.208Z,99790.34
2023-04-04T01:43:05.370Z,99792.91
2023-04-04T01:45:33.940Z,99773.22
2023-04-04T01:48:02.316Z,99786.69
2023-04-04T01:50:30.676Z,99795.84
2023-04-04T01:52:59.110Z,99807.28
2023-04-04T01:55:28.152Z,99804.78
2023-04-04T01:57:56.351Z,99774.28
2023-04-04T02:00:25.970Z,99765.66
2023-04-04T02:02:54.744Z,99777.75
2023-04-04T02:05:22.990Z,99811.00
2023-04-04T02:07:51.655Z,99768.69
2023-04-04T02:10:20.212Z,99786.84
2023-04-04T02:12:48.326Z,99797.28
2023-04-04T02:15:17.845Z,99804.72
2023-04-04T02:17:50.265Z,99803.50
2023-04-04T02:20:19.686Z,99793.06
2023-04-04T02:22:54.662Z,99813.03
2023-04-04T02:25:23.811Z,99807.28
2023-04-04T02:27:52.546Z,99835.81
2023-04-04T02:30:20.783Z,99797.44
2023-04-04T02:32:50.836Z,99783.06
2023-04-04T02:35:19.072Z,99802.66
2023-04-04T02:37:48.364Z,99806.53
2023-04-04T02:40:16.851Z,99812.25
2023-04-04T02:42:45.707Z,99800.53
2023-04-04T02:45:14.970Z,99802.28
2023-04-04T02:47:43.932Z,99818.84
2023-04-04T02:50:13.545Z,99815.75
2023-04-04T02:52:41.885Z,99744.84
2023-04-04T02:55:10.800Z,99803.91
2023-04-04T02:57:39.042Z,99783.13
2023-04-04T03:00:08.488Z,99766.47
2023-04-04T03:02:36.971Z,99752.00
2023-04-04T03:05:05.348Z,99765.41
2023-04-04T03:07:34.948Z,99773.03
2023-04-04T03:10:02.982Z,99789.56
2023-04-04T03:12:31.069Z,99774.03
2023-04-04T03:14:59.072Z,99797.72
2023-04-04T03:17:27.658Z,99726.91
2023-04-04T03:19:55.885Z,99794.91
2023-04-04T03:22:24.008Z,99801.91
2023-04-04T03:24:53.837Z,99793.66
2023-04-04T03:27:22.282Z,99808.66
2023-04-04T03:29:50.678Z,99797.38
2023-04-04T03:32:20.124Z,99821.00
2023-04-04T03:34:48.148Z,99822.72
2023-04-04T03:37:16.240Z,99829.34
2023-04-04T03:39:44.832Z,99812.38
2023-04-04T03:42:14.483Z,99836.59
2023-04-04T03:44:42.900Z,99831.50
2023-04-04T03:47:11.275Z,99841.00
2023-04-04T03:49:39.232Z,99834.81
2023-04-04T03:52:07.299Z,99841.84
2023-04-04T03:54:35.879Z,99847.16
2023-04-04T03:57:04.341Z,99852.94
2023-04-04T03:59:34.208Z,99882.00
2023-04-04T04:02:02.348Z,99852.78
2023-04-04T04:04:30.722Z,99853.72
2023-04-04T04:06:58.885Z,99835.44
2023-04-04T04:09:27.339Z,99852.38
2023-04-04T04:11:55.566Z,99856.97
2023-04-04T04:14:23.589Z,99837.16
2023-04-04T04:16:53.126Z,99839.34
2023-04-04T04:19:21.355Z,99842.81
2023-04-04T04:21:49.675Z,99847.75
2023-04-04T04:24:17.708Z,99839.34
2023-04-04T04:26:45.632Z,99853.63
2023-04-04T04:29:13.594Z,99844.53
2023-04-04T04:31:41.900Z,99837.53
2023-04-04T04:34:11.377Z,99835.47
2023-04-04T04:36:39.383Z,99837.97
2023-04-04T04:39:07.350Z,99850.03
2023-04-04T04:41:35.529Z,99856.00
2023-04-04T04:44:03.664Z,99770.72
2023-04-04T04:46:31.879Z,99829.72
2023-04-04T04:49:00.119Z,99842.25
2023-04-04T04:51:30.123Z,99834.66
2023-04-04T04:53:58.217Z,99865.28
2023-04-04T04:56:26.368Z,99858.75
2023-04-04T04:58:54.590Z,99856.44
2023-04-04T05:01:22.836Z,99810.09
2023-04-04T05:03:53.380Z,99870.28
2023-04-04T05:06:21.654Z,99863.63
2023-04-04T05:08:52.830Z,99855.00
2023-04-04T05:11:21.738Z,99842.06
2023-04-04T05:13:50.114Z,99874.81
2023-04-04T05:16:18.139Z,99864.78
2023-04-04T05:18:46.525Z,99837.72
2023-04-04T05:21:14.736Z,99874.72
2023-04-04T05:23:44.633Z,99881.25
2023-04-04T05:26:13.947Z,99888.06
2023-04-04T05:28:42.486Z,99893.81
2023-04-04T05:31:10.491Z,99898.16
2023-04-04T05:33:38.487Z,99910.91
2023-04-04T05:36:06.992Z,99915.06
2023-04-04T05:38:34.985Z,99920.06
2023-04-04T05:41:03.039Z,99915.06
2023-04-04T05:43:32.595Z,99927.69
2023-04-04T05:46:00.639Z,99936.44
2023-04-04T05:48:28.630Z,99887.72
2023-04-04T05:50:56.625Z,99960.50
2023-04-04T05:53:24.915Z,99970.13
2023-04-04T05:55:54.246Z,99958.50
2023-04-04T05:58:22.444Z,99975.31
2023-04-04T06:00:51.806Z,99969.31
2023-04-04T06:03:21.853Z,99960.06
2023-04-04T06:05:53.672Z,99936.25
2023-04-04T06:08:21.766Z,99944.94
2023-04-04T06:10:49.822Z,99937.13
2023-04-04T06:13:18.058Z,99923.19
2023-04-04T06:15:46.291Z,99907.03
2023-04-04T06:18:16.957Z,99925.88
2023-04-04T06:20:44.975Z,99921.13
2023-04-04T06:23:13.058Z,99922.06
2023-04-04T06:25:41.664Z,99916.06
2023-04-04T06:28:11.151Z,99915.50
2023-04-04T06:30:39.736Z,99908.88
2023-04-04T06:33:08.180Z,99913.53
2023-04-04T06:35:38.093Z,99926.59
2023-04-04T06:38:06.437Z,99906.88
2023-04-04T06:40:34.486Z,99900.72
2023-04-04T06:43:02.770Z,99907.19
2023-04-04T06:45:33.567Z,99908.81
2023-04-04T06:48:01.738Z,99915.91
2023-04-04T06:50:32.837Z,99912.41
2023-04-04T06:53:03.646Z,99913.59
2023-04-04T06:55:31.934Z,99909.50
2023-04-04T06:58:00.105Z,99905.81
2023-04-04T07:00:28.655Z,99896.59
2023-04-04T07:03:00.194Z,99886.50
2023-04-04T07:05:28.570Z,99908.50
2023-04-04T07:07:57.782Z,99902.03
2023-04-04T07:10:27.776Z,99892.91
2023-04-04T07:12:56.998Z,99896.50
2023-04-04T07:15:25.364Z,99885.44
2023-04-04T07:17:54.755Z,99888.16
2023-04-04T07:20:22.875Z,99890.06
2023-04-04T07:22:51.054Z,99888.69
2023-04-04T07:25:19.148Z,99888.13
2023-04-04T07:30:17.495Z,99881.47
2023-04-04T07:32:46.119Z,99897.94
2023-04-04T07:35:14.846Z,99894.03
2023-04-04T07:37:43.097Z,99893.03
2023-04-04T07:40:12.289Z,99889.41
2023-04-04T07:42:45.336Z,99898.88
2023-04-04T07:45:15.782Z,99902.84
2023-04-04T07:47:45.578Z,99896.94
2023-04-04T07:50:14.244Z,99898.81
2023-04-04T07:52:42.674Z,99845.00
2023-04-04T07:55:11.244Z,99897.75
2023-04-04T07:57:40.325Z,99900.44
2023-04-04T08:00:10.940Z,99901.59
2023-04-04T08:02:41.005Z,99890.97
2023-04-04T08:05:10.603Z,99911.13
2023-04-04T08:07:38.832Z,99908.81
2023-04-04T08:10:08.627Z,99890.28
2023-04-04T08:12:37.087Z,99899.50
2023-04-04T08:15:05.410Z,99906.88
2023-04-04T08:17:33.489Z,99882.31
2023-04-04T08:20:04.187Z,99900.44
2023-04-04T08:22:33.103Z,99906.31
2023-04-04T08:25:01.167Z,99892.94
2023-04-04T08:27:29.179Z,99888.59
2023-04-04T08:29:57.343Z,99864.91
2023-04-04T08:32:25.318Z,99903.69
2023-04-04T08:34:53.347Z,99886.19
2023-04-04T08:37:22.980Z,99893.84
2023-04-04T08:39:51.393Z,99876.44
2023-04-04T08:42:21.803Z,99889.69
2023-04-04T08:44:54.431Z,99883.03
2023-04-04T08:47:25.350Z,99883.03
2023-04-04T08:49:54.799Z,99880.75
2023-04-04T08:52:26.586Z,99879.31
2023-04-04T08:54:55.255Z,99892.25
2023-04-04T08:57:23.436Z,99889.16
2023-04-04T08:59:52.030Z,99872.31
2023-04-04T09:02:27.665Z,99882.53
2023-04-04T09:05:05.499Z,99886.72
2023-04-04T09:07:38.625Z,99891.00
2023-04-04T09:10:10.072Z,99891.22
2023-04-04T09:12:39.175Z,99898.09
2023-04-04T09:15:08.000Z,99879.72
2023-04-04T09:17:37.633Z,99889.53
2023-04-04T09:20:26.336Z,99890.69
2023-04-04T09:22:56.218Z,99885.56
2023-04-04T09:25:24.937Z,99842.03
2023-04-04T09:27:54.688Z,99848.69
2023-04-04T09:30:22.896Z,99882.59
2023-04-04T09:32:51.358Z,99873.44
2023-04-04T09:35:21.773Z,99879.03
2023-04-04T09:37:51.037Z,99869.34
2023-04-04T09:40:23.974Z,99868.97
2023-04-04T09:42:54.340Z,99854.16
2023-04-04T09:45:32.253Z,99861.81
2023-04-04T09:48:01.548Z,99863.94
2023-04-04T09:50:30.553Z,99877.22
2023-04-04T09:53:00.526Z,99892.00
2023-04-04T09:55:37.922Z,99878.75
2023-04-04T09:58:14.661Z,99880.00
2023-04-04T10:00:45.186Z,99853.63
2023-04-04T10:03:15.895Z,99871.00
2023-04-04T10:05:46.293Z,99889.22
2023-04-04T10:08:18.804Z,99840.38
2023-04-04T10:11:02.686Z,99865.06
2023-04-04T10:13:37.169Z,99852.47
2023-04-04T10:16:06.303Z,99888.47
2023-04-04T10:18:36.179Z,99888.28
2023-04-04T10:23:38.725Z,99885.44
2023-04-04T10:26:08.610Z,99888.34
2023-04-04T10:28:37.418Z,99876.34
2023-04-04T10:31:11.136Z,99882.66
2023-04-04T10:33:46.260Z,99872.44
2023-04-04T10:36:18.379Z,99875.84
2023-04-04T10:38:55.688Z,99902.91
2023-04-04T10:41:27.276Z,99888.94
2023-04-04T10:43:57.852Z,99877.41
2023-04-04T10:46:31.114Z,99886.28
2023-04-04T10:49:01.473Z,99853.50
2023-04-04T10:51:35.368Z,99859.41
2023-04-04T10:54:08.647Z,99882.25
2023-04-04T10:56:38.649Z,99884.72
2023-04-04T10:59:14.571Z,99878.22
2023-04-04T11:01:58.173Z,99873.84
2023-04-04T11:04:35.173Z,99889.91
2023-04-04T11:07:19.209Z,99888.16
2023-04-04T11:09:48.358Z,99885.31
2023-04-04T11:12:23.593Z,99877.44
2023-04-04T11:15:11.165Z,99888.22
2023-04-04T11:17:53.122Z,99868.06
2023-04-04T11:20:23.850Z,99877.50
2023-04-04T11:22:52.796Z,99886.66
2023-04-04T11:25:31.293Z,99875.13
2023-04-04T11:28:05.940Z,99877.03
2023-04-04T11:30:44.218Z,99874.16
2023-04-04T11:33:14.156Z,99871.94
2023-04-04T11:35:47.847Z,99883.66
2023-04-04T11:38:17.868Z,99867.22
2023-04-04T11:40:56.550Z,99881.81
2023-04-04T11:43:28.844Z,99882.91
2023-04-04T11:46:09.017Z,99886.38
2023-04-04T11:48:37.457Z,99880.19
2023-04-04T11:51:06.215Z,99875.50
2023-04-04T11:53:34.678Z,99885.34
2023-04-04T11:56:02.837Z,99892.63
2023-04-04T11:58:37.328Z,99884.31
2023-04-04T12:01:06.989Z,99881.59
2023-04-04T12:03:37.027Z,99867.56
2023-04-04T12:06:05.379Z,99892.91
2023-04-04T12:08:34.338Z,99869.75
2023-04-04T12:11:06.769Z,99903.81
2023-04-04T12:13:36.688Z,99885.59
2023-04-04T12:16:05.295Z,99874.09
2023-04-04T12:18:33.471Z,99897.03
2023-04-04T12:21:02.782Z,99888.63
2023-04-04T12:23:35.707Z,99903.75
2023-04-04T12:26:06.068Z,99877.06
2023-04-04T12:28:38.408Z,99899.03
2023-04-04T12:31:08.167Z,99894.94
2023-04-04T12:33:38.002Z,99899.28
2023-04-04T12:36:07.099Z,99893.81
2023-04-04T12:38:35.808Z,99898.28
2023-04-04T12:41:04.933Z,99863.47
2023-04-04T12:43:34.015Z,99883.25
2023-04-04T12:46:04.045Z,99879.94
2023-04-04T12:48:34.481Z,99886.34
2023-04-04T12:51:02.729Z,99878.84
2023-04-04T12:53:33.204Z,99880.19
2023-04-04T12:56:03.830Z,99863.63
2023-04-04T12:58:35.954Z,99884.94
2023-04-04T13:01:07.309Z,99874.34
2023-04-04T13:03:38.260Z,99866.00
2023-04-04T13:06:13.388Z,99863.78
2023-04-04T13:08:52.075Z,99872.81
2023-04-04T13:11:21.027Z,99865.69
2023-04-04T13:13:49.475Z,99870.47
2023-04-04T13:16:32.807Z,99863.72
2023-04-04T13:19:01.178Z,99860.19
2023-04-04T13:21:29.585Z,99844.72
2023-04-04T13:23:57.819Z,99868.94
2023-04-04T13:26:26.383Z,99862.41
2023-04-04T13:28:54.635Z,99870.41
2023-04-04T13:31:23.535Z,99843.81
2023-04-04T13:33:53.125Z,99871.91
2023-04-04T13:36:21.304Z,99862.28
2023-04-04T13:38:49.437Z,99859.59
2023-04-04T13:41:17.753Z,99869.56
2023-04-04T13:43:46.011Z,99874.13
2023-04-04T13:46:14.101Z,99871.78
2023-04-04T13:48:42.424Z,99881.38
2023-04-04T13:51:12.255Z,99881.44
2023-04-04T13:53:41.641Z,99875.75
2023-04-04T13:58:41.233Z,99887.88
2023-04-04T14:01:09.449Z,99878.25
2023-04-04T14:03:38.313Z,99884.69
2023-04-04T14:06:10.929Z,99883.50
2023-04-04T14:08:41.109Z,99881.47
2023-04-04T14:11:09.403Z,99887.66
2023-04-04T14:13:38.802Z,99890.44
2023-04-04T14:16:08.685Z,99887.47
2023-04-04T14:18:37.064Z,99901.25
2023-04-04T14:21:07.584Z,99896.16
2023-04-04T14:23:35.809Z,99900.59
2023-04-04T14:26:05.462Z,99901.72
2023-04-04T14:28:33.857Z,99914.25
2023-04-04T14:31:01.990Z,99907.78
2023-04-04T14:33:30.265Z,99904.78
2023-04-04T14:35:58.499Z,99899.59
2023-04-04T14:38:26.575Z,99890.59
2023-04-04T14:40:54.870Z,99910.84
2023-04-04T14:43:24.682Z,99917.03
2023-04-04T14:45:52.849Z,99891.34
2023-04-04T14:48:21.024Z,99902.78
2023-04-04T14:50:49.009Z,99933.09
2023-04-04T14:53:19.004Z,99949.41
2023-04-04T14:55:47.043Z,99953.66
2023-04-04T14:58:18.174Z,99948.13
2023-04-04T15:00:48.323Z,99951.72
2023-04-04T15:03:17.016Z,99951.94
2023-04-04T15:05:45.157Z,99959.25
2023-04-04T15:08:13.424Z,99954.16
2023-04-04T15:10:42.180Z,99948.53
2023-04-04T15:13:11.236Z,99943.72
2023-04-04T15:15:39.590Z,99890.09
2023-04-04T15:18:09.266Z,99947.31
2023-04-04T15:20:40.237Z,99952.94
2023-04-04T15:23:08.687Z,99961.63
2023-04-04T15:25:36.973Z,99972.94
2023-04-04T15:28:04.961Z,99957.13
2023-04-04T15:30:33.446Z,99975.31
2023-04-04T15:33:01.632Z,99944.91
2023-04-04T15:35:31.078Z,99977.97
2023-04-04T15:37:59.380Z,99977.63
2023-04-04T15:40:27.471Z,99925.78
2023-04-04T15:42:57.531Z,99988.47
2023-04-04T15:45:25.889Z,99983.94
2023-04-04T15:47:54.218Z,100001.09
2023-04-04T15:50:22.374Z,99987.97
2023-04-04T15:52:52.156Z,99987.78
2023-04-04T15:55:21.645Z,99996.06
2023-04-04T15:57:50.423Z,100015.31
2023-04-04T16:00:18.702Z,100011.16
2023-04-04T16:02:46.993Z,100018.22
2023-04-04T16:05:15.625Z,99981.66
2023-04-04T16:07:43.822Z,100018.91
2023-04-04T16:10:14.048Z,100012.09
2023-04-04T16:12:42.207Z,100035.78
2023-04-04T16:15:12.004Z,100035.63
2023-04-04T16:17:40.112Z,100030.31
2023-04-04T16:20:09.829Z,100037.06
2023-04-04T16:22:37.787Z,100033.94
2023-04-04T16:25:08.668Z,100017.06
2023-04-04T16:27:38.159Z,100037.25
2023-04-04T16:30:07.460Z,100032.81
2023-04-04T16:32:35.646Z,99998.50
2023-04-04T16:35:03.741Z,100033.22
2023-04-04T16:37:31.881Z,100025.50
2023-04-04T16:40:01.322Z,100024.91
2023-04-04T16:42:29.495Z,100031.94
2023-04-04T16:44:59.014Z,100028.50
2023-04-04T16:47:28.290Z,100042.69
2023-04-04T16:49:56.902Z,100035.47
2023-04-04T16:52:24.921Z,100032.47
2023-04-04T16:54:54.480Z,100041.22
2023-04-04T16:57:22.626Z,100050.28
2023-04-04T16:59:50.769Z,100029.16
2023-04-04T17:02:20.302Z,100045.22
2023-04-04T17:04:48.694Z,100045.38
2023-04-04T17:07:17.070Z,100057.22
2023-04-04T17:09:47.066Z,100029.81
2023-04-04T17:12:16.542Z,100050.88
2023-04-04T17:14:45.411Z,100026.06
2023-04-04T17:17:13.833Z,100056.72
2023-04-04T17:19:43.599Z,100030.25
2023-04-04T17:22:12.120Z,100055.56
2023-04-04T17:24:40.768Z,100067.53
2023-04-04T17:27:08.948Z,100064.44
2023-04-04T17:29:37.016Z,100068.03
2023-04-04T17:32:05.674Z,100068.16
2023-04-04T17:34:33.947Z,100066.84
2023-04-04T17:37:03.669Z,100063.38
2023-04-04T17:39:31.964Z,100069.75
2023-04-04T17:42:00.045Z,100071.88
2023-04-04T17:44:28.501Z,100071.69
2023-04-04T17:46:56.609Z,100081.66
2023-04-04T17:49:24.793Z,100072.44
2023-04-04T17:51:53.614Z,100096.63
2023-04-04T17:54:26.398Z,100088.25
2023-04-04T17:56:55.024Z,100092.78
2023-04-04T17:59:24.410Z,100104.91
2023-04-04T18:01:52.952Z,100098.88
2023-04-04T18:04:22.382Z,100088.94
2023-04-04T18:06:50.487Z,100097.16
2023-04-04T18:09:19.154Z,100102.72
2023-04-04T18:11:48.745Z,100115.88
2023-04-04T18:14:17.023Z,100117.13
2023-04-04T18:16:45.312Z,100134.75
2023-04-04T18:19:13.422Z,100137.00
2023-04-04T18:21:41.839Z,100129.59
2023-04-04T18:24:11.976Z,100131.72
2023-04-04T18:26:40.191Z,100127.16
2023-04-04T18:29:09.712Z,100138.47
2023-04-04T18:31:37.950Z,100146.91
2023-04-04T18:34:06.244Z,100136.03
2023-04-04T18:36:36.421Z,100144.66
2023-04-04T18:39:04.740Z,100143.72
2023-04-04T18:41:33.849Z,100146.59
2023-04-04T18:44:02.059Z,100129.81
2023-04-04T18:46:32.312Z,100155.31
2023-04-04T18:49:00.857Z,100154.00
2023-04-04T18:51:29.258Z,100155.84
2023-04-04T18:53:57.352Z,100147.91
2023-04-04T18:56:26.210Z,100153.09
2023-04-04T18:58:54.183Z,100160.00
2023-04-04T19:01:22.578Z,100158.47
2023-04-04T19:03:54.151Z,100164.94
2023-04-04T19:06:26.155Z,100150.94
2023-04-04T19:08:56.828Z,100177.28
2023-04-04T19:11:25.442Z,100164.44
2023-04-04T19:13:53.904Z,100170.47
2023-04-04T19:16:22.656Z,100182.47
2023-04-04T19:18:52.297Z,100174.97
2023-04-04T19:21:20.713Z,100187.31
2023-04-04T19:23:48.791Z,100118.88
2023-04-04T19:26:18.228Z,100159.34
2023-04-04T19:28:47.185Z,100175.78
2023-04-04T19:31:21.756Z,100140.00
2023-04-04T19:33:55.288Z,100182.53
2023-04-04T19:36:24.849Z,100201.66
2023-04-04T19:38:55.225Z,100191.88
2023-04-04T19:41:35.194Z,100150.97
2023-04-04T19:44:03.657Z,100200.97
2023-04-04T19:46:33.543Z,100175.97
2023-04-04T19:49:03.842Z,100203.31
2023-04-04T19:51:39.452Z,100202.59
2023-04-04T19:54:12.332Z,100204.34
2023-04-04T19:56:40.853Z,100206.53
2023-04-04T19:59:10.939Z,100215.81
2023-04-04T20:01:50.268Z,100215.69
2023-04-04T20:04:27.747Z,100208.31
2023-04-04T20:06:55.966Z,100223.03
2023-04-04T20:09:34.867Z,100227.78
2023-04-04T20:12:03.150Z,100220.06
2023-04-04T20:14:31.463Z,100202.94
2023-04-04T20:16:59.732Z,100233.03
2023-04-04T20:19:29.903Z,100225.25
2023-04-04T20:21:58.295Z,100226.72
2023-04-04T20:24:26.830Z,100233.44
2023-04-04T20:26:58.529Z,100233.50
2023-04-04T20:29:28.287Z,100236.06
2023-04-04T20:31:57.714Z,100232.50
2023-04-04T20:34:43.979Z,100229.47
2023-04-04T20:37:14.646Z,100237.31
2023-04-04T20:39:48.213Z,100243.13
2023-04-04T20:42:32.260Z,100242.06
2023-04-04T20:45:02.036Z,100242.06
2023-04-04T20:47:32.123Z,100243.44
2023-04-04T20:50:01.654Z,100233.47
2023-04-04T20:52:29.752Z,100207.50
2023-04-04T20:54:57.940Z,100243.34
2023-04-04T20:57:26.408Z,100241.47
2023-04-04T20:59:54.793Z,100237.78
2023-04-04T21:02:23.701Z,100227.56
2023-04-04T21:04:52.508Z,100221.06
2023-04-04T21:07:41.482Z,100242.06
2023-04-04T21:10:25.064Z,100224.63
2023-04-04T21:12:53.630Z,100237.25
2023-04-04T21:15:38.574Z,100235.22
2023-04-04T21:18:09.999Z,100247.97
2023-04-04T21:21:07.954Z,100242.13
2023-04-04T21:23:47.419Z,100241.41
2023-04-04T21:26:27.744Z,100241.06
2023-04-04T21:28:56.972Z,100233.34
2023-04-04T21:31:27.605Z,100243.25
2023-04-04T21:33:58.343Z,100233.78
2023-04-04T21:36:30.093Z,100228.00
2023-04-04T21:39:01.719Z,100232.03
2023-04-04T21:41:31.515Z,100221.78
2023-04-04T21:44:01.178Z,100225.59
2023-04-04T21:46:34.726Z,100227.66
2023-04-04T21:49:03.731Z,100223.91
2023-04-04T21:51:31.890Z,100224.88
2023-04-04T21:54:02.718Z,100232.97
2023-04-04T21:56:33.131Z,100228.53
2023-04-04T21:59:02.661Z,100203.75
2023-04-04T22:01:31.685Z,100244.66
2023-04-04T22:04:00.153Z,100236.78
2023-04-04T22:06:28.767Z,100239.22
2023-04-04T22:08:58.398Z,100250.84
2023-04-04T22:11:28.968Z,100243.53
2023-04-04T22:14:04.151Z,100242.25
2023-04-04T22:16:37.141Z,100241.56
2023-04-04T22:19:05.860Z,100256.31
2023-04-04T22:21:37.010Z,100252.50
2023-04-04T22:24:06.554Z,100253.47
2023-04-04T22:26:37.195Z,100251.16
2023-04-04T22:29:09.060Z,100245.59
2023-04-04T22:31:37.937Z,100232.47
2023-04-04T22:34:06.629Z,100243.59
2023-04-04T22:36:35.676Z,100247.13
2023-04-04T22:39:03.851Z,100245.00
2023-04-04T22:41:32.291Z,100235.69
2023-04-04T22:44:01.925Z,100245.31
2023-04-04T22:46:31.618Z,100235.84
2023-04-04T22:49:06.724Z,100248.97
2023-04-04T22:51:45.792Z,100247.91
2023-04-04T22:54:15.429Z,100248.91
2023-04-04T22:56:43.721Z,100233.78
2023-04-04T22:59:13.690Z,100239.28
2023-04-04T23:01:42.324Z,100249.34
2023-04-04T23:04:11.021Z,100252.16
2023-04-04T23:06:39.697Z,100254.97
2023-04-04T23:09:08.982Z,100247.50
2023-04-04T23:11:38.276Z,100265.28
2023-04-04T23:14:09.579Z,100246.59
2023-04-04T23:16:40.271Z,100254.91
2023-04-04T23:19:08.378Z,100276.09
2023-04-04T23:21:38.142Z,100265.72
2023-04-04T23:24:07.380Z,100268.16
2023-04-04T23:26:35.769Z,100262.94
2023-04-04T23:29:03.989Z,100265.44
2023-04-04T23:31:31.961Z,100264.31
2023-04-04T23:34:02.180Z,100260.00
2023-04-04T23:36:31.176Z,100259.16
2023-04-04T23:38:59.433Z,100256.84
2023-04-04T23:41:27.522Z,100226.56
2023-04-04T23:43:55.531Z,100264.38
2023-04-04T23:46:24.073Z,100257.78
2023-04-04T23:48:52.519Z,100267.09
2023-04-04T23:51:22.358Z,100261.94
2023-04-04T23:53:50.510Z,100255.13
2023-04-04T23:56:18.607Z,100242.59
2023-04-04T23:58:47.003Z,100266.84
